Time;durP1;ratioP1;P1;durP2;ratioP2;P2;SDS_P1;SDS_P2;PMS_P1;PMS_P2;Temp;Humidity;BMP_temperature;BMP_pressure;BME280_temperature;BME280_humidity;BME280_pressure;Samples;Min_cycle;Max_cycle;Signal;HPM_P1;HPM_P2
2022/05/10 00:01:52;;;;;;;13.68;6.05;;;15.60;99.90;;;;;;5033754;28;20461;-47
2022/05/10 00:04:18;;;;;;;15.50;6.25;;;15.30;99.90;;;;;;5033840;28;20041;-50
2022/05/10 00:06:47;;;;;;;10.85;5.20;;;15.20;99.90;;;;;;5033720;28;20049;-49
2022/05/10 00:09:14;;;;;;;13.07;5.85;;;15.20;99.90;;;;;;5033825;28;20192;-47
2022/05/10 00:11:40;;;;;;;12.43;6.20;;;15.00;99.90;;;;;;5033103;28;20048;-50
2022/05/10 00:14:06;;;;;;;12.23;6.05;;;15.10;99.90;;;;;;5033843;28;20033;-48
2022/05/10 00:16:35;;;;;;;15.73;6.15;;;15.10;99.90;;;;;;5033786;28;20393;-50
2022/05/10 00:19:01;;;;;;;14.43;5.80;;;15.10;99.90;;;;;;5033829;28;20041;-52
2022/05/10 00:21:27;;;;;;;14.75;6.88;;;15.10;99.90;;;;;;5033347;28;20040;-47
2022/05/10 00:23:53;;;;;;;13.30;6.28;;;15.10;99.90;;;;;;5033418;28;20033;-48
2022/05/10 00:26:18;;;;;;;15.02;5.75;;;15.00;99.90;;;;;;5033700;28;20063;-48
2022/05/10 00:28:44;;;;;;;11.65;6.10;;;15.00;99.90;;;;;;5033381;28;20164;-47
2022/05/10 00:31:12;;;;;;;16.48;6.50;;;14.90;99.90;;;;;;5032122;28;20073;-50
2022/05/10 00:33:38;;;;;;;12.13;5.90;;;14.90;99.90;;;;;;5033686;28;20056;-48
2022/05/10 00:36:06;;;;;;;12.35;5.90;;;14.90;99.90;;;;;;5041999;28;20040;-49
2022/05/10 00:38:35;;;;;;;13.32;6.43;;;14.80;99.90;;;;;;5013145;28;20606;-50
2022/05/10 00:41:50;;;;;;;17.90;6.57;;;14.80;99.90;;;;;;5048758;28;20115;-48
2022/05/10 00:44:23;;;;;;;15.60;6.32;;;14.80;99.90;;;;;;4971466;28;20038;-50
2022/05/10 00:47:03;;;;;;;11.50;6.25;;;14.70;99.90;;;;;;4967094;28;20047;-45
2022/05/10 00:49:38;;;;;;;11.57;6.38;;;14.80;99.90;;;;;;5013348;28;20064;-51
2022/05/10 00:52:26;;;;;;;13.80;5.97;;;14.70;99.90;;;;;;5052792;28;20040;-46
2022/05/10 00:55:38;;;;;;;15.98;6.35;;;14.70;99.90;;;;;;5052712;28;20140;-50
2022/05/10 00:58:21;;;;;;;14.35;5.90;;;14.60;99.90;;;;;;5052808;28;20825;-48
2022/05/10 01:00:47;;;;;;;14.52;6.65;;;14.60;99.90;;;;;;5052456;28;20493;-48
2022/05/10 01:03:40;;;;;;;19.88;6.85;;;14.50;99.90;;;;;;5052797;28;20033;-47
2022/05/10 01:06:26;;;;;;;16.02;6.28;;;14.50;99.90;;;;;;5052429;28;20151;-50
2022/05/10 01:09:04;;;;;;;17.63;6.82;;;14.50;99.90;;;;;;5052703;28;20045;-48
2022/05/10 01:11:48;;;;;;;13.57;6.18;;;14.50;99.90;;;;;;5052097;28;20045;-51
2022/05/10 01:14:25;;;;;;;13.35;6.50;;;14.40;99.90;;;;;;5052414;28;20033;-50
2022/05/10 01:16:51;;;;;;;12.02;6.15;;;14.50;99.90;;;;;;5052487;28;20037;-48
2022/05/10 01:19:17;;;;;;;15.23;6.40;;;14.50;99.90;;;;;;5050875;28;20033;-50
2022/05/10 01:21:58;;;;;;;15.05;6.20;;;14.40;99.90;;;;;;5052180;28;20036;-47
2022/05/10 01:24:41;;;;;;;13.35;6.80;;;14.40;99.90;;;;;;5052569;28;20037;-47
2022/05/10 01:27:32;;;;;;;13.07;6.53;;;14.30;99.90;;;;;;5052431;28;20090;-47
2022/05/10 01:30:06;;;;;;;15.75;7.22;;;14.30;99.90;;;;;;5052075;28;20115;-49
2022/05/10 01:35:36;;;;;;;14.05;6.45;;;14.30;99.90;;;;;;5052139;28;20102;-50
2022/05/10 01:38:23;;;;;;;12.85;7.03;;;14.30;99.90;;;;;;5052121;28;20060;-50
2022/05/10 01:40:53;;;;;;;13.90;6.78;;;14.30;99.90;;;;;;5051754;28;20041;-48
2022/05/10 01:43:48;;;;;;;14.68;6.68;;;14.30;99.90;;;;;;5050485;28;20159;-47
2022/05/10 01:46:25;;;;;;;;;;;14.20;99.90;;;;;;5041323;28;20128;-49
2022/05/10 01:48:57;;;;;;;12.60;6.43;;;14.20;99.90;;;;;;5051975;28;19929;-48
2022/05/10 01:51:38;;;;;;;12.90;6.50;;;14.20;99.90;;;;;;5051812;28;20032;-50
2022/05/10 01:54:31;;;;;;;14.35;6.85;;;14.10;99.90;;;;;;5051323;28;20037;-51
2022/05/10 01:56:57;;;;;;;12.52;6.75;;;14.10;99.90;;;;;;5050535;28;20106;-50
2022/05/10 01:59:23;;;;;;;14.07;7.50;;;14.10;99.90;;;;;;5051719;28;20045;-49
2022/05/10 02:01:48;;;;;;;13.95;6.90;;;14.10;99.90;;;;;;5051610;28;20094;-48
2022/05/10 02:04:31;;;;;;;16.40;7.05;;;14.10;99.90;;;;;;5051768;28;20040;-48
2022/05/10 02:07:08;;;;;;;10.27;6.25;;;14.10;99.90;;;;;;5051631;28;20558;-52
2022/05/10 02:09:52;;;;;;;13.38;6.60;;;14.10;99.90;;;;;;5051618;28;20528;-49
2022/05/10 02:12:19;;;;;;;;;;;14.20;99.90;;;;;;5051979;28;20033;-47
2022/05/10 02:14:50;;;;;;;15.02;6.63;;;14.10;99.90;;;;;;5051610;28;19925;-49
2022/05/10 02:17:24;;;;;;;14.23;6.53;;;14.10;99.90;;;;;;5051522;28;20095;-49
2022/05/10 02:20:00;;;;;;;16.33;6.35;;;14.10;99.90;;;;;;5051562;28;20903;-50
2022/05/10 02:22:53;;;;;;;15.20;7.45;;;14.10;99.90;;;;;;5051300;28;20102;-49
2022/05/10 02:25:27;;;;;;;13.45;6.68;;;14.10;99.90;;;;;;5051509;28;20119;-48
2022/05/10 02:27:57;;;;;;;14.65;6.40;;;14.10;99.90;;;;;;5051220;28;20059;-48
2022/05/10 02:30:27;;;;;;;16.60;6.70;;;14.10;99.90;;;;;;5050672;28;20033;-48
2022/05/10 02:33:09;;;;;;;16.40;6.75;;;14.10;99.90;;;;;;5051426;28;20052;-50
2022/05/10 02:35:47;;;;;;;13.85;6.60;;;14.20;99.90;;;;;;5049820;28;20034;-47
2022/05/10 02:38:17;;;;;;;12.82;6.85;;;14.20;99.90;;;;;;5031744;28;20041;-46
2022/05/10 02:40:44;;;;;;;17.08;7.63;;;14.20;99.90;;;;;;5050348;28;20044;-49
2022/05/10 02:43:17;;;;;;;17.05;6.75;;;14.20;99.90;;;;;;5051070;28;20040;-50
2022/05/10 02:45:43;;;;;;;16.50;7.72;;;14.20;99.90;;;;;;5050859;28;20040;-46
2022/05/10 02:48:20;;;;;;;16.50;7.57;;;14.30;99.90;;;;;;5051052;28;20052;-47
2022/05/10 02:50:46;;;;;;;12.13;6.90;;;14.30;99.90;;;;;;5051038;28;20384;-49
2022/05/10 02:53:12;;;;;;;16.55;8.10;;;14.30;99.90;;;;;;5033073;28;20098;-50
2022/05/10 02:55:43;;;;;;;19.52;7.85;;;14.30;99.90;;;;;;5050511;28;20405;-50
2022/05/10 02:58:16;;;;;;;18.15;8.15;;;14.40;99.90;;;;;;5050826;28;20045;-50
2022/05/10 03:00:42;;;;;;;14.40;8.15;;;14.30;99.90;;;;;;5051186;28;20045;-50
2022/05/10 03:03:15;;;;;;;15.57;8.23;;;14.40;99.90;;;;;;5032911;28;20041;-48
2022/05/10 03:05:41;;;;;;;17.67;8.52;;;14.40;99.90;;;;;;5054446;28;20044;-49
2022/05/10 03:08:07;;;;;;;18.52;8.30;;;14.40;99.90;;;;;;5054757;28;20128;-47
2022/05/10 03:10:32;;;;;;;19.27;9.15;;;14.40;99.90;;;;;;5054027;28;20040;-48
2022/05/10 03:12:59;;;;;;;18.70;8.55;;;14.50;99.90;;;;;;5054551;28;20033;-47
2022/05/10 03:15:25;;;;;;;15.35;8.65;;;14.40;99.90;;;;;;5054502;28;20033;-47
2022/05/10 03:17:50;;;;;;;20.08;8.88;;;14.40;99.90;;;;;;5054636;28;20036;-48
2022/05/10 03:20:16;;;;;;;15.52;8.15;;;14.50;99.90;;;;;;5054744;28;20043;-48
2022/05/10 03:22:42;;;;;;;17.88;8.52;;;14.40;99.90;;;;;;5040123;28;20045;-47
2022/05/10 03:25:07;;;;;;;14.55;8.68;;;14.40;99.90;;;;;;5034586;28;20366;-47
2022/05/10 03:27:34;;;;;;;18.20;8.60;;;14.40;99.90;;;;;;5034249;28;20064;-49
2022/05/10 03:30:03;;;;;;;15.60;9.07;;;14.40;99.90;;;;;;5034374;28;20414;-49
2022/05/10 03:32:29;;;;;;;18.77;9.00;;;14.40;99.90;;;;;;5034494;28;20481;-47
2022/05/10 03:34:55;;;;;;;15.38;9.15;;;14.40;99.90;;;;;;5033092;28;20041;-50
2022/05/10 03:37:25;;;;;;;16.05;9.13;;;14.30;99.90;;;;;;5034370;28;20113;-49
2022/05/10 03:39:51;;;;;;;18.75;9.20;;;14.40;99.90;;;;;;5033905;28;20489;-48
2022/05/10 03:42:16;;;;;;;17.65;8.20;;;14.30;99.90;;;;;;5034180;28;20045;-51
2022/05/10 03:44:42;;;;;;;15.80;8.75;;;14.20;99.90;;;;;;5034161;28;20479;-51
2022/05/10 03:47:09;;;;;;;21.38;9.02;;;14.10;99.90;;;;;;5034199;28;20049;-52
2022/05/10 03:49:36;;;;;;;19.65;9.20;;;14.00;99.90;;;;;;5033889;28;20041;-49
2022/05/10 03:52:02;;;;;;;17.80;9.65;;;14.10;99.90;;;;;;5034002;28;20056;-47
2022/05/10 03:54:28;;;;;;;20.30;10.05;;;14.00;99.90;;;;;;5034026;28;20029;-47
2022/05/10 03:56:54;;;;;;;15.52;9.25;;;13.90;99.90;;;;;;5033899;28;20107;-47
2022/05/10 03:59:20;;;;;;;15.73;9.05;;;14.00;99.90;;;;;;5033745;28;20053;-47
2022/05/10 04:01:46;;;;;;;16.15;9.27;;;14.00;99.90;;;;;;5033905;28;20034;-48
2022/05/10 04:04:13;;;;;;;18.58;9.82;;;13.90;99.90;;;;;;5034073;28;20110;-47
2022/05/10 04:06:39;;;;;;;15.65;9.60;;;13.90;99.90;;;;;;5033688;28;20037;-48
2022/05/10 04:09:05;;;;;;;19.67;9.95;;;13.90;99.90;;;;;;5033896;28;20048;-46
2022/05/10 04:11:31;;;;;;;18.92;10.10;;;13.90;99.90;;;;;;5033396;28;20036;-49
2022/05/10 04:13:56;;;;;;;15.40;9.57;;;13.90;99.90;;;;;;5033767;28;20037;-51
2022/05/10 04:16:22;;;;;;;15.02;9.07;;;13.90;99.90;;;;;;5032533;28;20037;-48
2022/05/10 04:18:48;;;;;;;14.95;9.77;;;13.90;99.90;;;;;;5033631;28;20132;-49
2022/05/10 04:21:14;;;;;;;16.67;9.65;;;14.00;99.90;;;;;;5032132;28;20469;-53
2022/05/10 04:23:40;;;;;;;15.80;9.93;;;14.10;99.90;;;;;;5033762;28;20047;-48
2022/05/10 04:26:08;;;;;;;14.77;9.43;;;14.10;99.90;;;;;;5033649;28;20076;-52
2022/05/10 04:28:35;;;;;;;19.65;9.65;;;14.20;99.90;;;;;;5052283;28;20495;-49
2022/05/10 04:31:01;;;;;;;20.40;10.02;;;14.20;99.90;;;;;;5048079;28;20083;-51
2022/05/10 04:33:27;;;;;;;16.00;9.70;;;14.20;99.90;;;;;;5033604;28;20370;-48
2022/05/10 04:35:53;;;;;;;16.40;10.18;;;14.30;99.90;;;;;;5033280;28;20044;-47
2022/05/10 04:38:19;;;;;;;15.30;9.70;;;14.30;99.90;;;;;;5033558;28;20037;-49
2022/05/10 04:43:30;;;;;;;15.77;9.82;;;14.30;99.90;;;;;;5033314;28;20060;-47
2022/05/10 04:45:56;;;;;;;16.42;9.73;;;14.30;99.90;;;;;;5033343;28;20045;-48
2022/05/10 04:48:21;;;;;;;17.83;10.45;;;14.30;99.90;;;;;;5033195;28;20041;-47
2022/05/10 04:50:48;;;;;;;20.58;10.15;;;14.40;99.90;;;;;;5034427;28;20033;-49
2022/05/10 04:53:14;;;;;;;17.63;9.90;;;14.50;99.90;;;;;;5052912;28;20048;-47
2022/05/10 04:55:39;;;;;;;18.02;10.45;;;14.50;99.90;;;;;;5052649;28;20239;-46
2022/05/10 04:58:05;;;;;;;19.80;10.10;;;14.50;99.90;;;;;;5051296;28;20389;-49
2022/05/10 05:00:31;;;;;;;20.85;11.13;;;14.60;99.90;;;;;;5052846;28;20053;-50
2022/05/10 05:02:57;;;;;;;16.55;9.68;;;14.60;99.90;;;;;;5052828;28;20049;-52
2022/05/10 05:05:23;;;;;;;15.98;8.70;;;14.70;99.90;;;;;;5052837;28;20036;-51
2022/05/10 05:07:49;;;;;;;18.83;10.10;;;14.70;99.90;;;;;;5052574;28;20098;-53
2022/05/10 05:10:15;;;;;;;16.48;10.10;;;14.80;99.90;;;;;;5050527;28;20468;-49
2022/05/10 05:12:41;;;;;;;14.60;9.93;;;14.80;99.90;;;;;;5052301;28;20802;-49
2022/05/10 05:15:09;;;;;;;18.70;10.75;;;14.80;99.90;;;;;;5052299;28;20071;-48
2022/05/10 05:17:35;;;;;;;18.00;10.30;;;14.80;99.90;;;;;;5052562;28;20048;-47
2022/05/10 05:20:01;;;;;;;17.98;10.50;;;14.90;99.90;;;;;;5052256;28;20041;-49
2022/05/10 05:22:27;;;;;;;18.05;10.88;;;14.90;99.90;;;;;;5052465;28;20039;-49
2022/05/10 05:24:53;;;;;;;19.13;10.68;;;14.90;99.90;;;;;;5052039;28;20159;-52
2022/05/10 05:27:19;;;;;;;17.15;10.63;;;14.90;99.90;;;;;;5051399;28;20037;-48
2022/05/10 05:29:46;;;;;;;17.13;10.68;;;15.00;99.90;;;;;;5052033;28;20072;-48
2022/05/10 05:32:12;;;;;;;18.48;11.80;;;15.00;99.90;;;;;;5051789;28;20037;-49
2022/05/10 05:34:38;;;;;;;22.00;11.02;;;15.10;99.90;;;;;;5051645;28;20037;-47
2022/05/10 05:39:49;;;;;;;26.08;10.55;;;15.10;99.90;;;;;;5046991;28;20052;-49
2022/05/10 05:42:17;;;;;;;26.25;11.85;;;15.20;99.90;;;;;;5005905;28;20441;-48
2022/05/10 05:44:43;;;;;;;16.52;10.05;;;15.20;99.90;;;;;;5047876;28;20055;-47
2022/05/10 05:47:09;;;;;;;17.23;10.52;;;15.30;99.90;;;;;;5049194;28;20044;-49
2022/05/10 05:49:34;;;;;;;30.45;11.23;;;15.40;99.90;;;;;;5050553;28;20044;-47
2022/05/10 05:52:01;;;;;;;17.88;10.90;;;15.50;99.90;;;;;;5032364;28;20079;-48
2022/05/10 05:54:28;;;;;;;17.50;9.63;;;15.60;99.90;;;;;;5050427;28;20043;-48
2022/05/10 05:57:06;;;;;;;16.05;9.75;;;15.70;99.90;;;;;;5048931;28;20125;-49
2022/05/10 05:59:33;;;;;;;16.30;10.68;;;15.70;99.90;;;;;;5047542;28;20068;-51
2022/05/10 06:01:59;;;;;;;16.05;10.27;;;15.80;99.90;;;;;;5049803;28;20041;-51
2022/05/10 06:04:25;;;;;;;16.27;10.00;;;15.90;99.90;;;;;;5050581;28;20037;-50
2022/05/10 06:06:51;;;;;;;19.10;9.43;;;16.00;99.90;;;;;;5050543;28;20396;-51
2022/05/10 06:09:22;;;;;;;15.18;9.02;;;16.20;99.90;;;;;;5050184;28;20040;-47
2022/05/10 06:11:49;;;;;;;18.90;9.40;;;16.30;99.90;;;;;;5049888;28;20108;-49
2022/05/10 06:14:15;;;;;;;16.60;9.63;;;16.40;99.90;;;;;;5050481;28;20044;-48
2022/05/10 06:16:42;;;;;;;17.85;9.68;;;16.50;99.90;;;;;;5050280;28;20044;-48
2022/05/10 06:19:09;;;;;;;18.90;9.65;;;16.50;99.90;;;;;;5049743;28;20086;-50
2022/05/10 06:21:35;;;;;;;16.05;9.77;;;16.60;99.90;;;;;;5050310;28;20114;-49
2022/05/10 06:24:01;;;;;;;17.83;10.70;;;16.60;99.90;;;;;;5049811;28;20056;-48
2022/05/10 06:26:26;;;;;;;14.35;10.38;;;16.60;99.90;;;;;;5049948;28;20123;-49
2022/05/10 06:28:52;;;;;;;18.15;10.52;;;16.60;99.90;;;;;;5050161;28;20162;-48
2022/05/10 06:31:18;;;;;;;18.15;11.43;;;16.60;99.90;;;;;;5049552;28;20128;-50
2022/05/10 06:33:44;;;;;;;21.55;12.15;;;16.60;99.90;;;;;;5049857;28;20048;-49
2022/05/10 06:36:09;;;;;;;18.27;10.75;;;16.70;99.90;;;;;;5047526;28;20040;-48
2022/05/10 06:38:36;;;;;;;17.15;10.82;;;16.80;99.90;;;;;;5049752;28;20041;-50
2022/05/10 06:41:04;;;;;;;19.55;10.77;;;16.80;99.90;;;;;;5048147;28;20484;-51
2022/05/10 06:43:35;;;;;;;20.95;10.75;;;16.90;99.90;;;;;;5050024;28;20408;-50
2022/05/10 06:46:09;;;;;;;20.15;10.35;;;17.10;99.90;;;;;;5048991;28;20122;-49
2022/05/10 06:48:35;;;;;;;15.38;9.85;;;17.20;99.90;;;;;;5049344;28;20098;-51
2022/05/10 06:51:06;;;;;;;13.95;9.07;;;17.30;99.90;;;;;;5050038;28;20417;-53
2022/05/10 06:53:32;;;;;;;14.55;9.05;;;17.40;99.90;;;;;;5044027;28;20140;-49
2022/05/10 06:55:58;;;;;;;14.70;9.23;;;17.50;99.90;;;;;;5048964;28;20117;-49
2022/05/10 06:58:24;;;;;;;17.63;8.95;;;17.60;99.90;;;;;;5037860;28;20139;-46
2022/05/10 07:00:50;;;;;;;15.55;8.85;;;17.70;99.90;;;;;;5029827;28;20037;-49
2022/05/10 07:03:22;;;;;;;17.02;9.95;;;17.80;99.90;;;;;;5032690;28;20048;-48
2022/05/10 07:05:48;;;;;;;19.50;9.60;;;17.90;99.90;;;;;;5030971;28;20033;-51
2022/05/10 07:08:13;;;;;;;16.55;8.93;;;18.00;99.90;;;;;;5029195;28;20049;-49
2022/05/10 07:10:40;;;;;;;15.38;9.00;;;18.10;99.90;;;;;;5030838;28;20137;-50
2022/05/10 07:13:05;;;;;;;17.92;8.98;;;18.20;99.90;;;;;;5032404;28;20065;-50
2022/05/10 07:15:31;;;;;;;14.55;8.50;;;18.20;99.90;;;;;;5028695;28;20476;-51
2022/05/10 07:17:57;;;;;;;17.50;8.40;;;18.30;99.90;;;;;;5028006;28;20107;-47
2022/05/10 07:20:23;;;;;;;17.45;9.25;;;18.40;99.90;;;;;;5029997;28;20168;-49
2022/05/10 07:22:49;;;;;;;15.95;9.05;;;18.50;99.90;;;;;;5029992;28;20045;-50
2022/05/10 07:25:17;;;;;;;18.45;8.75;;;18.50;99.90;;;;;;5027431;28;20041;-51
2022/05/10 07:27:44;;;;;;;15.77;9.00;;;18.60;99.90;;;;;;5030660;28;20091;-48
2022/05/10 07:30:11;;;;;;;21.80;9.73;;;18.70;99.90;;;;;;5029957;28;20505;-48
2022/05/10 07:32:38;;;;;;;13.82;9.15;;;18.80;99.90;;;;;;5030653;28;20558;-48
2022/05/10 07:35:05;;;;;;;19.23;9.50;;;18.90;99.90;;;;;;5026155;28;20032;-49
2022/05/10 07:37:33;;;;;;;15.30;8.57;;;19.00;99.90;;;;;;5027839;28;20480;-50
2022/05/10 07:40:00;;;;;;;17.20;9.05;;;19.20;99.90;;;;;;5027756;28;20037;-51
2022/05/10 07:42:26;;;;;;;16.48;8.30;;;19.40;99.90;;;;;;5029442;28;20041;-48
2022/05/10 07:44:52;;;;;;;16.40;7.97;;;19.50;99.90;;;;;;5023703;28;20037;-51
2022/05/10 07:47:18;;;;;;;15.48;7.65;;;19.60;99.90;;;;;;5028413;28;20034;-48
2022/05/10 07:49:43;;;;;;;13.55;7.93;;;19.70;99.90;;;;;;5027730;28;20099;-50
2022/05/10 07:52:10;;;;;;;13.93;8.55;;;19.70;99.90;;;;;;5031450;28;20103;-52
2022/05/10 07:54:36;;;;;;;13.50;7.72;;;19.70;99.90;;;;;;5030299;28;20041;-49
2022/05/10 07:57:03;;;;;;;13.30;8.27;;;19.70;99.90;;;;;;5030257;28;20437;-51
2022/05/10 07:59:30;;;;;;;17.33;8.25;;;19.70;99.90;;;;;;5034612;28;20124;-48
2022/05/10 08:01:57;;;;;;;16.63;8.98;;;19.70;99.90;;;;;;5031666;28;20489;-48
2022/05/10 08:04:23;;;;;;;13.27;8.10;;;19.60;99.90;;;;;;5031923;28;20043;-49
2022/05/10 08:06:49;;;;;;;14.00;8.60;;;19.70;99.90;;;;;;5032028;28;20034;-48
2022/05/10 08:09:14;;;;;;;15.07;8.85;;;19.60;99.90;;;;;;5035316;28;20049;-49
2022/05/10 08:11:41;;;;;;;16.65;9.30;;;19.50;99.90;;;;;;5032197;28;20476;-52
2022/05/10 08:14:07;;;;;;;18.23;8.88;;;19.50;99.90;;;;;;5034268;28;20771;-53
2022/05/10 08:16:33;;;;;;;14.85;8.60;;;19.50;99.90;;;;;;5030049;28;20041;-48
2022/05/10 08:18:59;;;;;;;18.45;9.05;;;19.50;99.90;;;;;;5029629;28;20044;-49
2022/05/10 08:21:25;;;;;;;15.95;8.27;;;19.50;99.90;;;;;;5034199;28;20104;-48
2022/05/10 08:23:53;;;;;;;25.50;8.85;;;19.50;99.90;;;;;;5032397;28;20049;-49
2022/05/10 08:26:20;;;;;;;14.20;8.60;;;19.50;99.90;;;;;;5030589;28;20045;-51
2022/05/10 08:28:46;;;;;;;19.58;8.55;;;19.60;99.90;;;;;;5033769;28;20118;-51
2022/05/10 08:31:12;;;;;;;14.45;8.65;;;19.60;99.90;;;;;;5036485;28;20037;-49
2022/05/10 08:33:40;;;;;;;15.48;9.30;;;19.70;99.90;;;;;;5031365;28;20489;-49
2022/05/10 08:36:08;;;;;;;15.10;8.23;;;19.70;99.90;;;;;;5033361;28;20028;-49
2022/05/10 08:38:34;;;;;;;15.95;8.57;;;19.70;99.90;;;;;;5032935;28;20098;-49
2022/05/10 08:41:03;;;;;;;13.13;8.00;;;19.80;99.90;;;;;;5029513;28;20029;-50
2022/05/10 08:44:00;;;;;;;13.38;8.38;;;19.80;99.90;;;;;;5032427;28;20179;-48
2022/05/10 08:46:41;;;;;;;25.95;9.63;;;19.80;99.90;;;;;;5030155;28;20052;-47
2022/05/10 08:49:30;;;;;;;16.85;9.05;;;19.90;99.90;;;;;;5028636;28;20040;-52
2022/05/10 08:51:56;;;;;;;15.43;9.55;;;19.90;99.90;;;;;;5027979;28;20071;-51
2022/05/10 08:54:22;;;;;;;16.67;9.43;;;20.00;99.90;;;;;;5031761;28;20045;-50
2022/05/10 08:56:58;;;;;;;17.98;10.23;;;20.00;99.90;;;;;;5031236;28;20041;-52
2022/05/10 08:59:24;;;;;;;21.23;9.93;;;20.10;99.90;;;;;;5032272;28;20193;-47
2022/05/10 09:01:52;;;;;;;15.60;9.25;;;20.20;99.90;;;;;;5032526;28;20124;-47
2022/05/10 09:04:39;;;;;;;16.55;9.02;;;20.20;99.90;;;;;;5027633;28;20041;-50
2022/05/10 09:07:13;;;;;;;16.85;10.13;;;20.30;99.90;;;;;;5037423;28;20072;-49
2022/05/10 09:10:01;;;;;;;14.65;9.05;;;20.30;99.90;;;;;;5030992;28;20467;-51
2022/05/10 09:12:28;;;;;;;16.95;9.70;;;20.50;99.90;;;;;;5031451;28;20037;-50
2022/05/10 09:15:03;;;;;;;18.38;9.02;;;20.50;99.90;;;;;;5032691;28;20037;-52
2022/05/10 09:17:32;;;;;;;16.70;9.23;;;20.80;99.90;;;;;;5028548;28;20056;-49
2022/05/10 09:19:58;;;;;;;20.10;9.45;;;21.00;99.90;;;;;;5030408;28;20122;-49
2022/05/10 09:22:24;;;;;;;15.48;8.98;;;21.10;99.90;;;;;;5031724;28;20040;-48
2022/05/10 09:24:56;;;;;;;16.83;8.68;;;21.20;99.90;;;;;;5030290;28;20037;-51
2022/05/10 09:27:29;;;;;;;16.67;9.13;;;21.50;99.90;;;;;;5029537;28;20432;-50
2022/05/10 09:29:55;;;;;;;17.98;8.48;;;21.70;99.90;;;;;;5031708;28;20079;-48
2022/05/10 09:35:26;;;;;;;11.98;7.03;;;22.10;99.90;;;;;;5033311;28;20048;-49
2022/05/10 09:37:58;;;;;;;21.30;7.68;;;22.10;99.90;;;;;;5033599;28;20044;-53
2022/05/10 09:40:46;;;;;;;11.68;7.20;;;22.00;99.90;;;;;;5031499;28;20048;-50
2022/05/10 09:43:15;;;;;;;15.25;7.32;;;21.90;99.90;;;;;;5030372;28;20344;-50
2022/05/10 09:45:41;;;;;;;12.88;7.22;;;22.00;99.90;;;;;;5032639;28;20084;-47
2022/05/10 09:48:17;;;;;;;15.20;8.02;;;21.90;99.90;;;;;;5033283;28;20066;-51
2022/05/10 09:50:44;;;;;;;12.48;7.60;;;22.00;99.90;;;;;;5028868;28;20034;-53
2022/05/10 09:53:24;;;;;;;14.13;7.53;;;22.00;99.90;;;;;;5030543;28;20037;-50
2022/05/10 09:56:04;;;;;;;13.43;6.75;;;22.10;99.90;;;;;;5028487;28;20110;-51
2022/05/10 09:58:42;;;;;;;18.52;7.10;;;22.10;99.90;;;;;;5027721;28;20437;-52
2022/05/10 10:01:15;;;;;;;11.40;6.47;;;22.20;99.90;;;;;;5027338;28;20083;-50
2022/05/10 10:03:42;;;;;;;38.83;8.88;;;22.20;99.90;;;;;;5029195;28;20087;-49
2022/05/10 10:06:21;;;;;;;12.07;8.23;;;22.30;99.90;;;;;;5031816;28;20501;-51
2022/05/10 10:08:55;;;;;;;13.13;7.70;;;22.30;99.90;;;;;;5032900;28;20485;-52
2022/05/10 10:11:28;;;;;;;25.40;7.55;;;22.40;99.90;;;;;;5031927;28;20042;-51
2022/05/10 10:13:57;;;;;;;12.65;7.22;;;22.50;99.90;;;;;;5029717;28;20041;-51
2022/05/10 10:16:48;;;;;;;9.57;7.10;;;22.70;99.90;;;;;;5031541;28;20029;-51
2022/05/10 10:19:34;;;;;;;9.80;6.95;;;22.90;99.90;;;;;;5030373;28;20511;-51
2022/05/10 10:22:18;;;;;;;16.52;7.20;;;23.00;99.90;;;;;;5030867;28;20087;-49
2022/05/10 10:25:09;;;;;;;15.02;6.97;;;23.00;99.90;;;;;;5029275;28;20805;-50
2022/05/10 10:28:01;;;;;;;12.00;4.80;;;23.00;99.90;;;;;;5029311;28;20044;-51
2022/05/10 10:30:55;;;;;;;20.08;5.65;;;23.10;99.40;;;;;;5029687;28;20447;-50
2022/05/10 10:33:27;;;;;;;25.85;5.60;;;23.20;99.00;;;;;;5032066;28;20409;-49
2022/05/10 10:35:53;;;;;;;14.68;5.00;;;23.40;98.70;;;;;;5030144;28;20465;-49
2022/05/10 10:38:52;;;;;;;18.45;4.55;;;23.40;98.80;;;;;;5025252;28;20044;-49
2022/05/10 10:41:49;;;;;;;86.07;11.48;;;23.50;98.20;;;;;;5031984;28;20539;-52
2022/05/10 10:44:20;;;;;;;14.77;5.03;;;23.50;98.40;;;;;;5026035;28;20356;-51
2022/05/10 10:47:10;;;;;;;53.65;7.95;;;23.50;98.40;;;;;;5027002;28;20040;-51
2022/05/10 10:49:35;;;;;;;18.92;5.38;;;23.60;98.50;;;;;;5031237;28;20425;-49
2022/05/10 10:52:01;;;;;;;14.60;5.30;;;23.50;97.60;;;;;;5028834;28;20036;-50
2022/05/10 10:54:29;;;;;;;8.82;5.00;;;23.40;98.00;;;;;;5024747;28;20041;-50
2022/05/10 10:57:17;;;;;;;11.45;5.13;;;23.40;97.70;;;;;;5034049;28;20049;-47
2022/05/10 10:59:48;;;;;;;9.38;5.05;;;23.50;97.80;;;;;;5031259;28;20138;-49
2022/05/10 11:02:16;;;;;;;13.88;4.88;;;23.50;97.60;;;;;;5024245;28;20065;-49
2022/05/10 11:05:39;;;;;;;15.35;5.47;;;23.60;98.00;;;;;;5029753;28;20033;-48
2022/05/10 11:08:27;;;;;;;17.13;5.38;;;23.50;96.70;;;;;;4956316;28;20482;-53
2022/05/10 11:11:24;;;;;;;17.05;5.07;;;23.40;96.80;;;;;;4969885;28;20109;-52
2022/05/10 11:14:26;;;;;;;10.95;5.03;;;23.50;97.20;;;;;;5027162;28;20056;-47
2022/05/10 11:17:10;;;;;;;8.05;4.90;;;23.60;97.80;;;;;;5030062;28;20328;-49
2022/05/10 11:19:42;;;;;;;27.38;6.65;;;23.60;97.20;;;;;;5028920;28;20030;-48
2022/05/10 11:22:30;;;;;;;15.27;5.03;;;23.60;97.50;;;;;;5030616;28;20073;-47
2022/05/10 11:25:27;;;;;;;10.38;4.70;;;23.70;97.10;;;;;;5031387;28;20044;-51
2022/05/10 11:28:11;;;;;;;13.63;5.15;;;23.80;97.30;;;;;;5030344;28;20041;-50
2022/05/10 11:31:11;;;;;;;13.90;4.57;;;23.80;97.20;;;;;;5032098;28;20049;-51
2022/05/10 11:33:53;;;;;;;11.68;4.78;;;23.90;97.60;;;;;;5037353;28;20379;-53
2022/05/10 11:36:44;;;;;;;18.77;4.25;;;23.90;97.50;;;;;;5035139;28;20055;-50
2022/05/10 11:39:53;;;;;;;10.80;4.07;;;23.90;96.00;;;;;;5032619;28;20710;-50
2022/05/10 11:42:35;;;;;;;20.17;5.50;;;24.00;96.10;;;;;;5033087;28;20277;-47
2022/05/10 11:45:09;;;;;;;14.00;4.38;;;24.10;95.50;;;;;;5033217;28;20029;-48
2022/05/10 11:47:43;;;;;;;11.98;4.50;;;24.30;95.20;;;;;;5031611;28;20041;-49
2022/05/10 11:50:17;;;;;;;;;;;24.30;95.50;;;;;;5031851;28;20046;-51
2022/05/10 11:53:22;;;;;;;11.27;4.30;;;24.20;94.70;;;;;;5033736;28;20030;-49
2022/05/10 11:55:59;;;;;;;11.05;3.88;;;24.20;95.10;;;;;;5030190;28;20049;-50
2022/05/10 11:58:29;;;;;;;38.45;6.50;;;24.20;95.20;;;;;;5035920;28;20040;-47
2022/05/10 12:01:00;;;;;;;10.18;4.05;;;24.30;94.70;;;;;;5029937;28;20045;-49
2022/05/10 12:03:44;;;;;;;10.85;4.00;;;24.20;95.20;;;;;;5033493;28;20429;-48
2022/05/10 12:06:24;;;;;;;37.78;6.10;;;24.00;95.00;;;;;;5033397;28;20045;-49
2022/05/10 12:08:55;;;;;;;60.75;7.68;;;23.90;94.50;;;;;;5034955;28;20060;-51
2022/05/10 12:11:49;;;;;;;10.52;4.03;;;24.10;95.30;;;;;;5031813;28;20049;-49
2022/05/10 12:24:00;;;;;;;9.23;3.03;;;23.90;94.60;;;;;;5030416;28;20508;-48
2022/05/10 12:26:36;;;;;;;;;;;24.00;95.30;;;;;;5032442;28;20092;-48
2022/05/10 12:29:26;;;;;;;8.00;3.72;;;23.90;94.80;;;;;;5047905;28;20000;-47
2022/05/10 12:31:58;;;;;;;12.70;3.47;;;24.00;95.20;;;;;;5034999;28;20053;-48
2022/05/10 12:34:45;;;;;;;13.63;3.60;;;24.20;95.20;;;;;;5045344;28;20048;-50
2022/05/10 12:37:24;;;;;;;10.30;3.60;;;24.10;95.20;;;;;;5030871;28;20037;-50
2022/05/10 12:39:57;;;;;;;9.63;3.03;;;24.20;94.80;;;;;;5049943;28;20037;-48
2022/05/10 12:42:27;;;;;;;8.50;3.17;;;24.10;95.10;;;;;;5049303;28;20037;-47
2022/05/10 12:45:09;;;;;;;11.20;2.85;;;24.30;94.90;;;;;;5065415;28;20045;-50
2022/05/10 12:48:03;;;;;;;15.52;3.67;;;24.10;94.30;;;;;;5051228;28;20032;-49
2022/05/10 12:50:47;;;;;;;;;;;24.20;94.50;;;;;;5050913;28;20120;-50
2022/05/10 12:53:26;;;;;;;14.05;3.20;;;24.00;94.30;;;;;;5051654;28;19920;-49
2022/05/10 12:56:16;;;;;;;7.65;3.33;;;23.80;94.10;;;;;;5051693;28;20075;-50
2022/05/10 12:58:47;;;;;;;10.77;3.05;;;23.60;93.80;;;;;;5051730;28;20044;-52
2022/05/10 13:01:16;;;;;;;8.40;3.28;;;23.50;94.30;;;;;;5049981;28;20044;-51
2022/05/10 13:03:49;;;;;;;7.50;3.60;;;23.50;94.90;;;;;;5051332;28;20119;-50
2022/05/10 13:06:34;;;;;;;9.63;3.50;;;23.40;95.10;;;;;;5051512;28;20040;-48
2022/05/10 13:09:25;;;;;;;9.75;3.53;;;23.30;95.10;;;;;;5051225;28;20080;-52
2022/05/10 13:11:56;;;;;;;10.02;3.50;;;23.20;95.60;;;;;;5050825;28;20045;-49
2022/05/10 13:14:23;;;;;;;9.07;3.63;;;23.20;95.50;;;;;;5051247;28;20037;-52
2022/05/10 13:16:52;;;;;;;8.93;3.35;;;23.20;95.60;;;;;;5051664;28;20045;-50
2022/05/10 13:19:21;;;;;;;11.98;2.90;;;23.20;95.40;;;;;;5051108;28;20556;-50
2022/05/10 13:21:48;;;;;;;7.47;3.08;;;23.00;95.00;;;;;;5051216;28;20047;-49
2022/05/10 13:24:17;;;;;;;6.20;2.55;;;23.10;95.10;;;;;;5051168;28;20033;-49
2022/05/10 13:27:19;;;;;;;7.30;2.50;;;23.30;95.40;;;;;;5051315;28;20499;-48